sensor_id;sensor_type;location;lat;lon;timestamp;temperature;humidity
18207;DHT22;9229;52.354;20.886;2022-10-14T00:00:46;6.20;99.90
18207;DHT22;9229;52.354;20.886;2022-10-14T00:05:48;6.20;99.90
18207;DHT22;9229;52.354;20.886;2022-10-14T00:10:50;6.10;99.90
18207;DHT22;9229;52.354;20.886;2022-10-14T00:15:53;6.10;99.90
18207;DHT22;9229;52.354;20.886;2022-10-14T00:20:58;6.10;99.90
18207;DHT22;9229;52.354;20.886;2022-10-14T00:26:00;6.00;99.90
18207;DHT22;9229;52.354;20.886;2022-10-14T00:31:05;6.00;99.90
18207;DHT22;9229;52.354;20.886;2022-10-14T00:36:10;5.90;99.90
18207;DHT22;9229;52.354;20.886;2022-10-14T00:41:15;5.90;99.90
18207;DHT22;9229;52.354;20.886;2022-10-14T00:46:21;5.80;99.90
18207;DHT22;9229;52.354;20.886;2022-10-14T00:51:28;5.70;99.90
18207;DHT22;9229;52.354;20.886;2022-10-14T00:56:30;5.70;99.90
18207;DHT22;9229;52.354;20.886;2022-10-14T01:01:35;5.60;99.90
18207;DHT22;9229;52.354;20.886;2022-10-14T01:06:41;5.60;99.90
18207;DHT22;9229;52.354;20.886;2022-10-14T01:11:57;5.60;99.90
18207;DHT22;9229;52.354;20.886;2022-10-14T01:17:06;5.40;99.90
18207;DHT22;9229;52.354;20.886;2022-10-14T01:22:15;5.30;99.90
18207;DHT22;9229;52.354;20.886;2022-10-14T01:27:24;5.20;99.90
18207;DHT22;9229;52.354;20.886;2022-10-14T01:32:31;5.20;99.90
18207;DHT22;9229;52.354;20.886;2022-10-14T01:37:37;5.20;99.90
18207;DHT22;9229;52.354;20.886;2022-10-14T01:42:42;5.30;99.90
18207;DHT22;9229;52.354;20.886;2022-10-14T01:47:49;5.40;99.90
18207;DHT22;9229;52.354;20.886;2022-10-14T01:52:56;5.50;99.90
18207;DHT22;9229;52.354;20.886;2022-10-14T01:57:59;5.70;99.90
18207;DHT22;9229;52.354;20.886;2022-10-14T02:03:03;5.80;99.90
18207;DHT22;9229;52.354;20.886;2022-10-14T02:08:11;5.90;99.90
18207;DHT22;9229;52.354;20.886;2022-10-14T02:13:28;6.00;99.90
18207;DHT22;9229;52.354;20.886;2022-10-14T02:18:38;6.10;99.90
18207;DHT22;9229;52.354;20.886;2022-10-14T02:23:45;6.20;99.90
18207;DHT22;9229;52.354;20.886;2022-10-14T02:28:50;6.20;99.90
18207;DHT22;9229;52.354;20.886;2022-10-14T02:33:56;6.30;99.90
18207;DHT22;9229;52.354;20.886;2022-10-14T02:39:00;6.40;99.90
18207;DHT22;9229;52.354;20.886;2022-10-14T02:44:04;6.40;99.90
18207;DHT22;9229;52.354;20.886;2022-10-14T02:49:08;6.50;99.90
18207;DHT22;9229;52.354;20.886;2022-10-14T02:54:10;6.50;99.90
18207;DHT22;9229;52.354;20.886;2022-10-14T02:59:11;6.50;99.90
18207;DHT22;9229;52.354;20.886;2022-10-14T03:04:15;6.50;99.90
18207;DHT22;9229;52.354;20.886;2022-10-14T03:09:17;6.50;99.90
18207;DHT22;9229;52.354;20.886;2022-10-14T03:14:23;6.60;99.90
18207;DHT22;9229;52.354;20.886;2022-10-14T03:19:28;6.60;99.90
18207;DHT22;9229;52.354;20.886;2022-10-14T03:24:30;6.70;99.90
18207;DHT22;9229;52.354;20.886;2022-10-14T03:29:51;6.70;99.90
18207;DHT22;9229;52.354;20.886;2022-10-14T03:34:58;6.80;99.90
18207;DHT22;9229;52.354;20.886;2022-10-14T03:40:01;6.90;99.90
18207;DHT22;9229;52.354;20.886;2022-10-14T03:45:06;6.90;99.90
18207;DHT22;9229;52.354;20.886;2022-10-14T03:50:12;7.00;99.90
18207;DHT22;9229;52.354;20.886;2022-10-14T03:55:21;7.00;99.90
18207;DHT22;9229;52.354;20.886;2022-10-14T04:00:25;7.00;99.90
18207;DHT22;9229;52.354;20.886;2022-10-14T04:05:42;7.10;99.90
18207;DHT22;9229;52.354;20.886;2022-10-14T04:10:51;7.10;99.90
18207;DHT22;9229;52.354;20.886;2022-10-14T04:15:54;7.30;99.90
18207;DHT22;9229;52.354;20.886;2022-10-14T04:21:04;7.30;99.90
18207;DHT22;9229;52.354;20.886;2022-10-14T04:26:07;7.30;99.90
18207;DHT22;9229;52.354;20.886;2022-10-14T04:31:11;7.30;99.90
18207;DHT22;9229;52.354;20.886;2022-10-14T04:36:28;7.30;99.90
18207;DHT22;9229;52.354;20.886;2022-10-14T04:41:33;7.30;99.90
18207;DHT22;9229;52.354;20.886;2022-10-14T04:46:36;7.30;99.90
18207;DHT22;9229;52.354;20.886;2022-10-14T04:51:40;7.30;99.90
18207;DHT22;9229;52.354;20.886;2022-10-14T04:57:04;7.30;99.90
18207;DHT22;9229;52.354;20.886;2022-10-14T05:02:09;7.30;99.90
18207;DHT22;9229;52.354;20.886;2022-10-14T05:07:28;7.30;99.90
18207;DHT22;9229;52.354;20.886;2022-10-14T05:12:39;7.40;99.90
18207;DHT22;9229;52.354;20.886;2022-10-14T05:17:41;7.50;99.90
18207;DHT22;9229;52.354;20.886;2022-10-14T05:22:46;7.60;99.90
18207;DHT22;9229;52.354;20.886;2022-10-14T05:27:48;7.70;99.90
18207;DHT22;9229;52.354;20.886;2022-10-14T05:32:51;7.80;99.90
18207;DHT22;9229;52.354;20.886;2022-10-14T05:37:56;7.90;99.90
18207;DHT22;9229;52.354;20.886;2022-10-14T05:42:59;8.00;99.90
18207;DHT22;9229;52.354;20.886;2022-10-14T05:48:03;8.10;99.90
18207;DHT22;9229;52.354;20.886;2022-10-14T05:53:06;8.20;99.90
18207;DHT22;9229;52.354;20.886;2022-10-14T05:58:14;8.30;99.90
18207;DHT22;9229;52.354;20.886;2022-10-14T06:03:18;8.40;99.90
18207;DHT22;9229;52.354;20.886;2022-10-14T06:08:22;8.60;99.90
18207;DHT22;9229;52.354;20.886;2022-10-14T06:13:25;8.70;99.90
18207;DHT22;9229;52.354;20.886;2022-10-14T06:18:28;8.90;99.90
18207;DHT22;9229;52.354;20.886;2022-10-14T06:23:31;9.00;99.90
18207;DHT22;9229;52.354;20.886;2022-10-14T06:28:33;9.10;99.90
18207;DHT22;9229;52.354;20.886;2022-10-14T06:33:35;9.10;99.90
18207;DHT22;9229;52.354;20.886;2022-10-14T06:38:38;9.30;99.90
18207;DHT22;9229;52.354;20.886;2022-10-14T06:43:41;9.50;99.90
18207;DHT22;9229;52.354;20.886;2022-10-14T06:48:43;9.60;99.90
18207;DHT22;9229;52.354;20.886;2022-10-14T06:53:46;9.80;99.90
18207;DHT22;9229;52.354;20.886;2022-10-14T06:58:52;10.00;99.90
18207;DHT22;9229;52.354;20.886;2022-10-14T07:03:54;10.10;99.90
18207;DHT22;9229;52.354;20.886;2022-10-14T07:08:57;10.10;99.90
18207;DHT22;9229;52.354;20.886;2022-10-14T07:13:59;10.10;99.90
18207;DHT22;9229;52.354;20.886;2022-10-14T07:19:01;10.40;99.90
18207;DHT22;9229;52.354;20.886;2022-10-14T07:24:04;10.40;99.90
18207;DHT22;9229;52.354;20.886;2022-10-14T07:29:06;10.60;99.90
18207;DHT22;9229;52.354;20.886;2022-10-14T07:34:08;10.70;99.90
18207;DHT22;9229;52.354;20.886;2022-10-14T07:39:14;10.90;99.90
18207;DHT22;9229;52.354;20.886;2022-10-14T07:44:16;11.20;99.90
18207;DHT22;9229;52.354;20.886;2022-10-14T07:49:20;11.60;99.90
18207;DHT22;9229;52.354;20.886;2022-10-14T07:54:24;12.00;99.90
18207;DHT22;9229;52.354;20.886;2022-10-14T07:59:28;12.10;99.90
18207;DHT22;9229;52.354;20.886;2022-10-14T08:04:30;12.80;99.90
18207;DHT22;9229;52.354;20.886;2022-10-14T08:09:35;13.40;99.90
18207;DHT22;9229;52.354;20.886;2022-10-14T08:14:37;13.90;99.90
18207;DHT22;9229;52.354;20.886;2022-10-14T08:19:38;14.10;99.90
18207;DHT22;9229;52.354;20.886;2022-10-14T08:24:42;14.60;99.90
18207;DHT22;9229;52.354;20.886;2022-10-14T08:29:43;14.50;99.90
18207;DHT22;9229;52.354;20.886;2022-10-14T08:34:45;14.70;99.90
18207;DHT22;9229;52.354;20.886;2022-10-14T08:39:49;15.00;99.90
18207;DHT22;9229;52.354;20.886;2022-10-14T08:44:55;15.10;99.90
18207;DHT22;9229;52.354;20.886;2022-10-14T08:50:00;15.10;99.90
18207;DHT22;9229;52.354;20.886;2022-10-14T08:55:15;15.20;99.90
18207;DHT22;9229;52.354;20.886;2022-10-14T09:00:20;15.10;99.90
18207;DHT22;9229;52.354;20.886;2022-10-14T09:05:24;15.20;99.90
18207;DHT22;9229;52.354;20.886;2022-10-14T09:10:30;15.60;99.90
18207;DHT22;9229;52.354;20.886;2022-10-14T09:15:37;15.90;99.90
18207;DHT22;9229;52.354;20.886;2022-10-14T09:20:41;15.70;99.90
18207;DHT22;9229;52.354;20.886;2022-10-14T09:25:53;15.70;99.90
18207;DHT22;9229;52.354;20.886;2022-10-14T09:30:55;15.90;99.90
18207;DHT22;9229;52.354;20.886;2022-10-14T09:35:57;15.80;99.90
18207;DHT22;9229;52.354;20.886;2022-10-14T09:41:01;16.10;99.90
18207;DHT22;9229;52.354;20.886;2022-10-14T09:46:05;16.50;99.90
18207;DHT22;9229;52.354;20.886;2022-10-14T09:51:20;16.70;99.90
18207;DHT22;9229;52.354;20.886;2022-10-14T09:56:29;16.80;99.90
18207;DHT22;9229;52.354;20.886;2022-10-14T10:01:36;17.10;99.90
18207;DHT22;9229;52.354;20.886;2022-10-14T10:06:51;17.20;99.90
18207;DHT22;9229;52.354;20.886;2022-10-14T10:11:55;17.40;99.90
18207;DHT22;9229;52.354;20.886;2022-10-14T10:17:16;17.50;99.90
18207;DHT22;9229;52.354;20.886;2022-10-14T10:22:24;17.70;99.90
18207;DHT22;9229;52.354;20.886;2022-10-14T10:27:31;18.10;99.90
18207;DHT22;9229;52.354;20.886;2022-10-14T10:32:36;18.70;99.40
18207;DHT22;9229;52.354;20.886;2022-10-14T10:37:47;18.90;99.10
18207;DHT22;9229;52.354;20.886;2022-10-14T10:48:23;19.30;98.20
18207;DHT22;9229;52.354;20.886;2022-10-14T10:53:49;19.50;97.00
18207;DHT22;9229;52.354;20.886;2022-10-14T10:59:08;19.40;96.70
18207;DHT22;9229;52.354;20.886;2022-10-14T11:04:28;19.00;96.30
18207;DHT22;9229;52.354;20.886;2022-10-14T11:09:37;18.60;97.70
18207;DHT22;9229;52.354;20.886;2022-10-14T11:15:14;18.90;97.50
18207;DHT22;9229;52.354;20.886;2022-10-14T11:20:26;19.00;96.80
18207;DHT22;9229;52.354;20.886;2022-10-14T11:25:41;19.00;97.10
18207;DHT22;9229;52.354;20.886;2022-10-14T11:31:00;19.00;96.70
18207;DHT22;9229;52.354;20.886;2022-10-14T11:36:15;18.90;97.10
18207;DHT22;9229;52.354;20.886;2022-10-14T11:41:29;19.00;97.50
18207;DHT22;9229;52.354;20.886;2022-10-14T11:46:41;19.30;96.70
18207;DHT22;9229;52.354;20.886;2022-10-14T11:51:48;19.40;96.30
18207;DHT22;9229;52.354;20.886;2022-10-14T11:56:56;19.50;96.10
18207;DHT22;9229;52.354;20.886;2022-10-14T12:02:03;19.50;95.80
18207;DHT22;9229;52.354;20.886;2022-10-14T12:07:14;19.50;95.80
18207;DHT22;9229;52.354;20.886;2022-10-14T12:12:21;19.40;95.60
18207;DHT22;9229;52.354;20.886;2022-10-14T12:17:31;19.60;95.70
18207;DHT22;9229;52.354;20.886;2022-10-14T12:22:35;19.80;95.00
18207;DHT22;9229;52.354;20.886;2022-10-14T12:27:39;20.00;94.60
18207;DHT22;9229;52.354;20.886;2022-10-14T12:32:58;20.00;94.30
18207;DHT22;9229;52.354;20.886;2022-10-14T12:38:02;19.90;94.60
18207;DHT22;9229;52.354;20.886;2022-10-14T12:43:17;19.70;94.20
18207;DHT22;9229;52.354;20.886;2022-10-14T12:48:22;19.40;94.60
18207;DHT22;9229;52.354;20.886;2022-10-14T12:53:26;19.40;95.00
18207;DHT22;9229;52.354;20.886;2022-10-14T12:58:32;19.40;95.50
18207;DHT22;9229;52.354;20.886;2022-10-14T13:03:42;19.20;95.00
18207;DHT22;9229;52.354;20.886;2022-10-14T13:14:54;18.90;95.90
18207;DHT22;9229;52.354;20.886;2022-10-14T13:19:59;18.80;96.10
18207;DHT22;9229;52.354;20.886;2022-10-14T13:25:03;18.70;96.60
18207;DHT22;9229;52.354;20.886;2022-10-14T13:30:15;18.60;96.60
18207;DHT22;9229;52.354;20.886;2022-10-14T13:35:25;18.50;97.00
18207;DHT22;9229;52.354;20.886;2022-10-14T13:40:29;18.60;97.00
18207;DHT22;9229;52.354;20.886;2022-10-14T13:45:38;18.50;96.80
18207;DHT22;9229;52.354;20.886;2022-10-14T13:50:43;18.50;97.20
18207;DHT22;9229;52.354;20.886;2022-10-14T13:55:48;18.30;97.10
18207;DHT22;9229;52.354;20.886;2022-10-14T14:00:59;18.10;97.60
18207;DHT22;9229;52.354;20.886;2022-10-14T14:06:09;17.80;98.30
18207;DHT22;9229;52.354;20.886;2022-10-14T14:11:16;17.60;98.70
18207;DHT22;9229;52.354;20.886;2022-10-14T14:16:20;17.20;99.40
18207;DHT22;9229;52.354;20.886;2022-10-14T14:21:26;17.00;99.90
18207;DHT22;9229;52.354;20.886;2022-10-14T14:26:32;16.80;99.90
18207;DHT22;9229;52.354;20.886;2022-10-14T14:31:37;16.70;99.90
18207;DHT22;9229;52.354;20.886;2022-10-14T14:36:41;16.60;99.90
18207;DHT22;9229;52.354;20.886;2022-10-14T14:41:49;16.40;99.90
18207;DHT22;9229;52.354;20.886;2022-10-14T14:46:52;16.40;99.90
18207;DHT22;9229;52.354;20.886;2022-10-14T14:51:57;16.30;99.90
18207;DHT22;9229;52.354;20.886;2022-10-14T14:57:03;16.10;99.90
18207;DHT22;9229;52.354;20.886;2022-10-14T15:02:13;16.00;99.90
18207;DHT22;9229;52.354;20.886;2022-10-14T15:07:23;15.80;99.90
18207;DHT22;9229;52.354;20.886;2022-10-14T15:12:28;15.70;99.90
18207;DHT22;9229;52.354;20.886;2022-10-14T15:17:33;15.60;99.90
18207;DHT22;9229;52.354;20.886;2022-10-14T15:22:37;15.50;99.90
18207;DHT22;9229;52.354;20.886;2022-10-14T15:27:47;15.50;99.90
18207;DHT22;9229;52.354;20.886;2022-10-14T15:32:50;15.40;99.90
18207;DHT22;9229;52.354;20.886;2022-10-14T15:37:54;15.30;99.90
18207;DHT22;9229;52.354;20.886;2022-10-14T15:42:56;15.20;99.90
18207;DHT22;9229;52.354;20.886;2022-10-14T15:48:02;15.10;99.90
18207;DHT22;9229;52.354;20.886;2022-10-14T15:53:07;15.00;99.90
18207;DHT22;9229;52.354;20.886;2022-10-14T15:58:10;14.80;99.90
18207;DHT22;9229;52.354;20.886;2022-10-14T16:03:12;14.70;99.90
18207;DHT22;9229;52.354;20.886;2022-10-14T16:08:18;14.60;99.90
18207;DHT22;9229;52.354;20.886;2022-10-14T16:13:20;14.50;99.90
18207;DHT22;9229;52.354;20.886;2022-10-14T16:18:22;14.40;99.90
18207;DHT22;9229;52.354;20.886;2022-10-14T16:23:31;14.40;99.90
18207;DHT22;9229;52.354;20.886;2022-10-14T16:28:34;14.40;99.90
18207;DHT22;9229;52.354;20.886;2022-10-14T16:33:36;14.30;99.90
18207;DHT22;9229;52.354;20.886;2022-10-14T16:38:39;14.30;99.90
18207;DHT22;9229;52.354;20.886;2022-10-14T16:43:41;14.20;99.90
18207;DHT22;9229;52.354;20.886;2022-10-14T16:48:43;14.20;99.90
18207;DHT22;9229;52.354;20.886;2022-10-14T16:53:46;14.10;99.90
18207;DHT22;9229;52.354;20.886;2022-10-14T16:58:49;14.10;99.90
18207;DHT22;9229;52.354;20.886;2022-10-14T17:03:53;14.10;99.90
18207;DHT22;9229;52.354;20.886;2022-10-14T17:08:57;14.10;99.90
18207;DHT22;9229;52.354;20.886;2022-10-14T17:13:59;14.10;99.90
18207;DHT22;9229;52.354;20.886;2022-10-14T17:19:01;14.00;99.90
18207;DHT22;9229;52.354;20.886;2022-10-14T17:24:05;14.00;99.90
18207;DHT22;9229;52.354;20.886;2022-10-14T17:29:07;14.00;99.90
18207;DHT22;9229;52.354;20.886;2022-10-14T17:34:09;13.90;99.90
18207;DHT22;9229;52.354;20.886;2022-10-14T17:39:14;13.90;99.90
18207;DHT22;9229;52.354;20.886;2022-10-14T17:44:19;13.80;99.90
18207;DHT22;9229;52.354;20.886;2022-10-14T17:49:22;13.80;99.90
18207;DHT22;9229;52.354;20.886;2022-10-14T17:54:29;13.80;99.90
18207;DHT22;9229;52.354;20.886;2022-10-14T17:59:43;13.70;99.90
18207;DHT22;9229;52.354;20.886;2022-10-14T18:04:46;13.70;99.90
18207;DHT22;9229;52.354;20.886;2022-10-14T18:09:50;13.60;99.90
18207;DHT22;9229;52.354;20.886;2022-10-14T18:15:01;13.60;99.90
18207;DHT22;9229;52.354;20.886;2022-10-14T18:20:27;13.40;99.90
18207;DHT22;9229;52.354;20.886;2022-10-14T18:25:33;13.40;99.90
18207;DHT22;9229;52.354;20.886;2022-10-14T18:30:36;13.40;99.90
18207;DHT22;9229;52.354;20.886;2022-10-14T18:35:39;13.30;99.90
18207;DHT22;9229;52.354;20.886;2022-10-14T18:40:43;13.20;99.90
18207;DHT22;9229;52.354;20.886;2022-10-14T18:45:46;13.10;99.90
18207;DHT22;9229;52.354;20.886;2022-10-14T18:50:55;13.00;99.90
18207;DHT22;9229;52.354;20.886;2022-10-14T18:56:08;13.00;99.90
18207;DHT22;9229;52.354;20.886;2022-10-14T19:01:18;13.00;99.90
18207;DHT22;9229;52.354;20.886;2022-10-14T19:06:32;12.90;99.90
18207;DHT22;9229;52.354;20.886;2022-10-14T19:11:51;12.90;99.90
18207;DHT22;9229;52.354;20.886;2022-10-14T19:16:55;12.90;99.90
18207;DHT22;9229;52.354;20.886;2022-10-14T19:21:57;12.90;99.90
18207;DHT22;9229;52.354;20.886;2022-10-14T19:27:01;12.90;99.90
18207;DHT22;9229;52.354;20.886;2022-10-14T19:32:05;12.80;99.90
18207;DHT22;9229;52.354;20.886;2022-10-14T19:37:07;12.80;99.90
18207;DHT22;9229;52.354;20.886;2022-10-14T19:42:11;12.80;99.90
18207;DHT22;9229;52.354;20.886;2022-10-14T19:47:18;12.70;99.90
18207;DHT22;9229;52.354;20.886;2022-10-14T19:52:22;12.70;99.90
18207;DHT22;9229;52.354;20.886;2022-10-14T19:57:26;12.70;99.90
18207;DHT22;9229;52.354;20.886;2022-10-14T20:02:28;12.70;99.90
18207;DHT22;9229;52.354;20.886;2022-10-14T20:07:30;12.70;99.90
18207;DHT22;9229;52.354;20.886;2022-10-14T20:12:33;12.70;99.90
18207;DHT22;9229;52.354;20.886;2022-10-14T20:17:35;12.70;99.90
18207;DHT22;9229;52.354;20.886;2022-10-14T20:22:39;12.60;99.90
18207;DHT22;9229;52.354;20.886;2022-10-14T20:27:46;12.60;99.90
18207;DHT22;9229;52.354;20.886;2022-10-14T20:32:51;12.50;99.90
18207;DHT22;9229;52.354;20.886;2022-10-14T20:37:53;12.40;99.90
18207;DHT22;9229;52.354;20.886;2022-10-14T20:42:57;12.30;99.90
18207;DHT22;9229;52.354;20.886;2022-10-14T20:47:59;12.20;99.90
18207;DHT22;9229;52.354;20.886;2022-10-14T20:53:01;12.10;99.90
18207;DHT22;9229;52.354;20.886;2022-10-14T20:58:07;12.00;99.90
18207;DHT22;9229;52.354;20.886;2022-10-14T21:03:09;11.90;99.90
18207;DHT22;9229;52.354;20.886;2022-10-14T21:08:11;11.80;99.90
18207;DHT22;9229;52.354;20.886;2022-10-14T21:13:15;11.70;99.90
18207;DHT22;9229;52.354;20.886;2022-10-14T21:18:16;11.70;99.90
18207;DHT22;9229;52.354;20.886;2022-10-14T21:23:19;11.60;99.90
18207;DHT22;9229;52.354;20.886;2022-10-14T21:28:23;11.50;99.90
18207;DHT22;9229;52.354;20.886;2022-10-14T21:33:24;11.40;99.90
18207;DHT22;9229;52.354;20.886;2022-10-14T21:38:27;11.30;99.90
18207;DHT22;9229;52.354;20.886;2022-10-14T21:43:32;11.20;99.90
18207;DHT22;9229;52.354;20.886;2022-10-14T21:48:34;11.10;99.90
18207;DHT22;9229;52.354;20.886;2022-10-14T21:53:37;10.90;99.90
18207;DHT22;9229;52.354;20.886;2022-10-14T21:58:41;10.80;99.90
18207;DHT22;9229;52.354;20.886;2022-10-14T22:03:44;10.70;99.90
18207;DHT22;9229;52.354;20.886;2022-10-14T22:08:47;10.70;99.90
18207;DHT22;9229;52.354;20.886;2022-10-14T22:13:52;10.60;99.90
18207;DHT22;9229;52.354;20.886;2022-10-14T22:18:56;10.60;99.90
18207;DHT22;9229;52.354;20.886;2022-10-14T22:23:59;10.50;99.90
18207;DHT22;9229;52.354;20.886;2022-10-14T22:29:04;10.40;99.90
18207;DHT22;9229;52.354;20.886;2022-10-14T22:34:08;10.40;99.90
18207;DHT22;9229;52.354;20.886;2022-10-14T22:39:15;10.30;99.90
18207;DHT22;9229;52.354;20.886;2022-10-14T22:44:19;10.20;99.90
18207;DHT22;9229;52.354;20.886;2022-10-14T22:49:21;10.10;99.90
18207;DHT22;9229;52.354;20.886;2022-10-14T22:54:23;10.00;99.90
18207;DHT22;9229;52.354;20.886;2022-10-14T22:59:27;9.90;99.90
18207;DHT22;9229;52.354;20.886;2022-10-14T23:04:29;9.80;99.90
18207;DHT22;9229;52.354;20.886;2022-10-14T23:09:31;9.70;99.90
18207;DHT22;9229;52.354;20.886;2022-10-14T23:14:34;9.60;99.90
18207;DHT22;9229;52.354;20.886;2022-10-14T23:19:36;9.50;99.90
18207;DHT22;9229;52.354;20.886;2022-10-14T23:24:38;9.30;99.90
18207;DHT22;9229;52.354;20.886;2022-10-14T23:29:41;9.30;99.90
18207;DHT22;9229;52.354;20.886;2022-10-14T23:34:43;9.10;99.90
18207;DHT22;9229;52.354;20.886;2022-10-14T23:39:45;9.10;99.90
18207;DHT22;9229;52.354;20.886;2022-10-14T23:44:48;9.00;99.90
18207;DHT22;9229;52.354;20.886;2022-10-14T23:49:50;8.90;99.90
18207;DHT22;9229;52.354;20.886;2022-10-14T23:54:52;8.80;99.90
18207;DHT22;9229;52.354;20.886;2022-10-14T23:59:55;8.50;99.90
